sensor_id;sensor_type;location;lat;lon;timestamp;temperature;humidity
25914;DHT22;13718;50.922;5.346;2023-12-04T00:01:57;3.50;99.90
25914;DHT22;13718;50.922;5.346;2023-12-04T00:04:23;3.50;99.90
25914;DHT22;13718;50.922;5.346;2023-12-04T00:06:49;3.60;99.90
25914;DHT22;13718;50.922;5.346;2023-12-04T00:09:14;3.60;99.90
25914;DHT22;13718;50.922;5.346;2023-12-04T00:11:40;3.60;99.90
25914;DHT22;13718;50.922;5.346;2023-12-04T00:14:05;3.50;99.90
25914;DHT22;13718;50.922;5.346;2023-12-04T00:16:33;3.50;99.90
25914;DHT22;13718;50.922;5.346;2023-12-04T00:18:58;3.50;99.90
25914;DHT22;13718;50.922;5.346;2023-12-04T00:21:24;3.50;99.90
25914;DHT22;13718;50.922;5.346;2023-12-04T00:23:49;3.50;99.90
25914;DHT22;13718;50.922;5.346;2023-12-04T00:26:15;3.60;99.90
25914;DHT22;13718;50.922;5.346;2023-12-04T00:28:40;3.60;99.90
25914;DHT22;13718;50.922;5.346;2023-12-04T00:31:06;3.60;99.90
25914;DHT22;13718;50.922;5.346;2023-12-04T00:33:31;3.60;99.90
25914;DHT22;13718;50.922;5.346;2023-12-04T00:35:57;3.60;99.90
25914;DHT22;13718;50.922;5.346;2023-12-04T00:38:22;3.50;99.90
25914;DHT22;13718;50.922;5.346;2023-12-04T00:40:48;3.50;99.90
25914;DHT22;13718;50.922;5.346;2023-12-04T00:43:13;3.50;99.90
25914;DHT22;13718;50.922;5.346;2023-12-04T00:45:39;3.50;99.90
25914;DHT22;13718;50.922;5.346;2023-12-04T00:48:05;3.60;99.90
25914;DHT22;13718;50.922;5.346;2023-12-04T00:50:30;3.70;99.90
25914;DHT22;13718;50.922;5.346;2023-12-04T00:52:56;3.60;99.90
25914;DHT22;13718;50.922;5.346;2023-12-04T00:55:21;3.60;99.90
25914;DHT22;13718;50.922;5.346;2023-12-04T00:57:47;3.60;99.90
25914;DHT22;13718;50.922;5.346;2023-12-04T01:00:12;3.40;99.90
25914;DHT22;13718;50.922;5.346;2023-12-04T01:02:38;3.30;99.90
25914;DHT22;13718;50.922;5.346;2023-12-04T01:05:03;3.20;99.90
25914;DHT22;13718;50.922;5.346;2023-12-04T01:07:29;3.20;99.90
25914;DHT22;13718;50.922;5.346;2023-12-04T01:09:55;3.30;99.90
25914;DHT22;13718;50.922;5.346;2023-12-04T01:12:20;3.20;99.90
25914;DHT22;13718;50.922;5.346;2023-12-04T01:14:46;3.20;99.90
25914;DHT22;13718;50.922;5.346;2023-12-04T01:17:12;3.20;99.90
25914;DHT22;13718;50.922;5.346;2023-12-04T01:19:37;3.10;99.90
25914;DHT22;13718;50.922;5.346;2023-12-04T01:22:03;3.00;99.90
25914;DHT22;13718;50.922;5.346;2023-12-04T01:24:28;3.00;99.90
25914;DHT22;13718;50.922;5.346;2023-12-04T01:26:54;3.10;99.90
25914;DHT22;13718;50.922;5.346;2023-12-04T01:29:19;3.10;99.90
25914;DHT22;13718;50.922;5.346;2023-12-04T01:31:45;3.10;99.90
25914;DHT22;13718;50.922;5.346;2023-12-04T01:34:10;3.20;99.90
25914;DHT22;13718;50.922;5.346;2023-12-04T01:36:39;3.10;99.90
25914;DHT22;13718;50.922;5.346;2023-12-04T01:39:05;3.00;99.90
25914;DHT22;13718;50.922;5.346;2023-12-04T01:41:30;3.10;99.90
25914;DHT22;13718;50.922;5.346;2023-12-04T01:43:56;2.90;99.90
25914;DHT22;13718;50.922;5.346;2023-12-04T01:46:21;2.80;99.90
25914;DHT22;13718;50.922;5.346;2023-12-04T01:48:47;2.60;99.90
25914;DHT22;13718;50.922;5.346;2023-12-04T01:51:12;2.60;99.90
25914;DHT22;13718;50.922;5.346;2023-12-04T01:53:38;2.60;99.90
25914;DHT22;13718;50.922;5.346;2023-12-04T01:56:04;2.50;99.90
25914;DHT22;13718;50.922;5.346;2023-12-04T01:58:31;2.50;99.90
25914;DHT22;13718;50.922;5.346;2023-12-04T02:00:57;2.60;99.90
25914;DHT22;13718;50.922;5.346;2023-12-04T02:03:22;2.60;99.90
25914;DHT22;13718;50.922;5.346;2023-12-04T02:05:48;2.60;99.90
25914;DHT22;13718;50.922;5.346;2023-12-04T02:08:14;2.80;99.90
25914;DHT22;13718;50.922;5.346;2023-12-04T02:10:39;2.80;99.90
25914;DHT22;13718;50.922;5.346;2023-12-04T02:13:05;2.80;99.90
25914;DHT22;13718;50.922;5.346;2023-12-04T02:15:32;2.80;99.90
25914;DHT22;13718;50.922;5.346;2023-12-04T02:17:58;2.90;99.90
25914;DHT22;13718;50.922;5.346;2023-12-04T02:20:33;3.20;99.90
25914;DHT22;13718;50.922;5.346;2023-12-04T02:22:59;3.40;99.90
25914;DHT22;13718;50.922;5.346;2023-12-04T02:25:25;3.50;99.90
25914;DHT22;13718;50.922;5.346;2023-12-04T02:27:50;3.60;99.90
25914;DHT22;13718;50.922;5.346;2023-12-04T02:30:17;3.50;99.90
25914;DHT22;13718;50.922;5.346;2023-12-04T02:32:45;3.30;99.90
25914;DHT22;13718;50.922;5.346;2023-12-04T02:35:11;3.30;99.90
25914;DHT22;13718;50.922;5.346;2023-12-04T02:37:37;3.30;99.90
25914;DHT22;13718;50.922;5.346;2023-12-04T02:40:03;3.50;99.90
25914;DHT22;13718;50.922;5.346;2023-12-04T02:42:29;3.50;99.90
25914;DHT22;13718;50.922;5.346;2023-12-04T02:44:54;3.50;99.90
25914;DHT22;13718;50.922;5.346;2023-12-04T02:47:20;3.50;99.90
25914;DHT22;13718;50.922;5.346;2023-12-04T02:49:45;3.50;99.90
25914;DHT22;13718;50.922;5.346;2023-12-04T02:52:11;3.50;99.90
25914;DHT22;13718;50.922;5.346;2023-12-04T02:54:36;3.60;99.90
25914;DHT22;13718;50.922;5.346;2023-12-04T02:57:02;3.50;99.90
25914;DHT22;13718;50.922;5.346;2023-12-04T02:59:27;3.60;99.90
25914;DHT22;13718;50.922;5.346;2023-12-04T03:01:53;3.60;99.90
25914;DHT22;13718;50.922;5.346;2023-12-04T03:04:19;3.50;99.90
25914;DHT22;13718;50.922;5.346;2023-12-04T03:06:44;3.50;99.90
25914;DHT22;13718;50.922;5.346;2023-12-04T03:09:10;3.50;99.90
25914;DHT22;13718;50.922;5.346;2023-12-04T03:11:35;3.50;99.90
25914;DHT22;13718;50.922;5.346;2023-12-04T03:14:04;3.50;99.90
25914;DHT22;13718;50.922;5.346;2023-12-04T03:16:29;3.60;99.90
25914;DHT22;13718;50.922;5.346;2023-12-04T03:18:55;3.60;99.90
25914;DHT22;13718;50.922;5.346;2023-12-04T03:21:20;3.60;99.90
25914;DHT22;13718;50.922;5.346;2023-12-04T03:23:46;3.60;99.90
25914;DHT22;13718;50.922;5.346;2023-12-04T03:26:11;3.60;99.90
25914;DHT22;13718;50.922;5.346;2023-12-04T03:28:38;3.50;99.90
25914;DHT22;13718;50.922;5.346;2023-12-04T03:31:03;3.60;99.90
25914;DHT22;13718;50.922;5.346;2023-12-04T03:33:29;3.50;99.90
25914;DHT22;13718;50.922;5.346;2023-12-04T03:35:54;3.50;99.90
25914;DHT22;13718;50.922;5.346;2023-12-04T03:38:20;3.50;99.90
25914;DHT22;13718;50.922;5.346;2023-12-04T03:40:45;3.60;99.90
25914;DHT22;13718;50.922;5.346;2023-12-04T03:43:11;3.60;99.90
25914;DHT22;13718;50.922;5.346;2023-12-04T03:45:36;3.60;99.90
25914;DHT22;13718;50.922;5.346;2023-12-04T03:48:02;3.60;99.90
25914;DHT22;13718;50.922;5.346;2023-12-04T03:50:27;3.60;99.90
25914;DHT22;13718;50.922;5.346;2023-12-04T03:52:53;3.60;99.90
25914;DHT22;13718;50.922;5.346;2023-12-04T03:55:18;3.60;99.90
25914;DHT22;13718;50.922;5.346;2023-12-04T03:57:45;3.70;99.90
25914;DHT22;13718;50.922;5.346;2023-12-04T04:00:10;3.70;99.90
25914;DHT22;13718;50.922;5.346;2023-12-04T04:02:36;3.70;99.90
25914;DHT22;13718;50.922;5.346;2023-12-04T04:05:02;3.80;99.90
25914;DHT22;13718;50.922;5.346;2023-12-04T04:07:27;3.90;99.90
25914;DHT22;13718;50.922;5.346;2023-12-04T04:09:53;3.90;99.90
25914;DHT22;13718;50.922;5.346;2023-12-04T04:12:18;3.90;99.90
25914;DHT22;13718;50.922;5.346;2023-12-04T04:14:44;3.90;99.90
25914;DHT22;13718;50.922;5.346;2023-12-04T04:17:09;3.80;99.90
25914;DHT22;13718;50.922;5.346;2023-12-04T04:19:34;3.80;99.90
25914;DHT22;13718;50.922;5.346;2023-12-04T04:22:00;3.90;99.90
25914;DHT22;13718;50.922;5.346;2023-12-04T04:24:26;4.00;99.90
25914;DHT22;13718;50.922;5.346;2023-12-04T04:26:51;4.00;99.90
25914;DHT22;13718;50.922;5.346;2023-12-04T04:29:17;4.00;99.90
25914;DHT22;13718;50.922;5.346;2023-12-04T04:31:42;4.10;99.90
25914;DHT22;13718;50.922;5.346;2023-12-04T04:34:07;4.20;99.90
25914;DHT22;13718;50.922;5.346;2023-12-04T04:36:33;4.20;99.90
25914;DHT22;13718;50.922;5.346;2023-12-04T04:39:01;4.10;99.90
25914;DHT22;13718;50.922;5.346;2023-12-04T04:41:26;4.10;99.90
25914;DHT22;13718;50.922;5.346;2023-12-04T04:43:52;4.10;99.90
25914;DHT22;13718;50.922;5.346;2023-12-04T04:46:18;3.90;99.90
25914;DHT22;13718;50.922;5.346;2023-12-04T04:48:44;4.00;99.90
25914;DHT22;13718;50.922;5.346;2023-12-04T04:51:09;4.10;99.90
25914;DHT22;13718;50.922;5.346;2023-12-04T04:53:35;4.10;99.90
25914;DHT22;13718;50.922;5.346;2023-12-04T04:56:00;4.10;99.90
25914;DHT22;13718;50.922;5.346;2023-12-04T04:58:26;4.20;99.90
25914;DHT22;13718;50.922;5.346;2023-12-04T05:00:51;4.30;99.90
25914;DHT22;13718;50.922;5.346;2023-12-04T05:03:16;4.30;99.90
25914;DHT22;13718;50.922;5.346;2023-12-04T05:05:42;4.30;99.90
25914;DHT22;13718;50.922;5.346;2023-12-04T05:08:07;4.30;99.90
25914;DHT22;13718;50.922;5.346;2023-12-04T05:10:33;4.20;99.90
25914;DHT22;13718;50.922;5.346;2023-12-04T05:12:58;4.20;99.90
25914;DHT22;13718;50.922;5.346;2023-12-04T05:15:24;4.30;99.90
25914;DHT22;13718;50.922;5.346;2023-12-04T05:17:51;4.40;99.90
25914;DHT22;13718;50.922;5.346;2023-12-04T05:20:16;4.50;99.90
25914;DHT22;13718;50.922;5.346;2023-12-04T05:22:42;4.50;99.90
25914;DHT22;13718;50.922;5.346;2023-12-04T05:25:07;4.40;99.90
25914;DHT22;13718;50.922;5.346;2023-12-04T05:27:33;4.50;99.90
25914;DHT22;13718;50.922;5.346;2023-12-04T05:29:58;4.50;99.90
25914;DHT22;13718;50.922;5.346;2023-12-04T05:32:24;4.50;99.90
25914;DHT22;13718;50.922;5.346;2023-12-04T05:34:49;4.50;99.90
25914;DHT22;13718;50.922;5.346;2023-12-04T05:37:15;4.60;99.90
25914;DHT22;13718;50.922;5.346;2023-12-04T05:39:41;4.60;99.90
25914;DHT22;13718;50.922;5.346;2023-12-04T05:42:06;4.60;99.90
25914;DHT22;13718;50.922;5.346;2023-12-04T05:44:32;4.70;99.90
25914;DHT22;13718;50.922;5.346;2023-12-04T05:46:57;4.60;99.90
25914;DHT22;13718;50.922;5.346;2023-12-04T05:49:23;4.70;99.90
25914;DHT22;13718;50.922;5.346;2023-12-04T05:51:48;4.60;99.90
25914;DHT22;13718;50.922;5.346;2023-12-04T05:54:14;4.70;99.90
25914;DHT22;13718;50.922;5.346;2023-12-04T05:56:39;4.60;99.90
25914;DHT22;13718;50.922;5.346;2023-12-04T05:59:05;4.60;99.90
25914;DHT22;13718;50.922;5.346;2023-12-04T06:01:30;4.60;99.90
25914;DHT22;13718;50.922;5.346;2023-12-04T06:03:55;4.60;99.90
25914;DHT22;13718;50.922;5.346;2023-12-04T06:06:21;4.60;99.90
25914;DHT22;13718;50.922;5.346;2023-12-04T06:08:46;4.60;99.90
25914;DHT22;13718;50.922;5.346;2023-12-04T06:11:12;4.70;99.90
25914;DHT22;13718;50.922;5.346;2023-12-04T06:13:38;4.80;99.90
25914;DHT22;13718;50.922;5.346;2023-12-04T06:16:04;4.70;99.90
25914;DHT22;13718;50.922;5.346;2023-12-04T06:18:29;4.50;99.90
25914;DHT22;13718;50.922;5.346;2023-12-04T06:20:55;4.60;99.90
25914;DHT22;13718;50.922;5.346;2023-12-04T06:23:21;4.60;99.90
25914;DHT22;13718;50.922;5.346;2023-12-04T06:25:46;4.30;99.90
25914;DHT22;13718;50.922;5.346;2023-12-04T06:28:12;4.30;99.90
25914;DHT22;13718;50.922;5.346;2023-12-04T06:30:38;4.40;99.90
25914;DHT22;13718;50.922;5.346;2023-12-04T06:33:03;4.30;99.90
25914;DHT22;13718;50.922;5.346;2023-12-04T06:35:29;4.30;99.90
25914;DHT22;13718;50.922;5.346;2023-12-04T06:37:55;4.60;99.90
25914;DHT22;13718;50.922;5.346;2023-12-04T06:40:21;4.90;99.90
25914;DHT22;13718;50.922;5.346;2023-12-04T06:42:47;5.00;99.90
25914;DHT22;13718;50.922;5.346;2023-12-04T06:45:12;5.00;99.90
25914;DHT22;13718;50.922;5.346;2023-12-04T06:47:40;5.10;99.90
25914;DHT22;13718;50.922;5.346;2023-12-04T06:50:06;5.10;99.90
25914;DHT22;13718;50.922;5.346;2023-12-04T06:52:31;5.20;99.90
25914;DHT22;13718;50.922;5.346;2023-12-04T06:54:57;5.30;99.90
25914;DHT22;13718;50.922;5.346;2023-12-04T06:57:22;5.20;99.90
25914;DHT22;13718;50.922;5.346;2023-12-04T06:59:48;5.20;99.90
25914;DHT22;13718;50.922;5.346;2023-12-04T07:02:13;5.30;99.90
25914;DHT22;13718;50.922;5.346;2023-12-04T07:04:39;5.20;99.90
25914;DHT22;13718;50.922;5.346;2023-12-04T07:07:05;5.20;99.90
25914;DHT22;13718;50.922;5.346;2023-12-04T07:09:31;5.20;99.90
25914;DHT22;13718;50.922;5.346;2023-12-04T07:11:57;5.20;99.90
25914;DHT22;13718;50.922;5.346;2023-12-04T07:14:23;5.40;99.90
25914;DHT22;13718;50.922;5.346;2023-12-04T07:16:48;5.30;99.90
25914;DHT22;13718;50.922;5.346;2023-12-04T07:19:14;5.30;99.90
25914;DHT22;13718;50.922;5.346;2023-12-04T07:21:41;5.20;99.90
25914;DHT22;13718;50.922;5.346;2023-12-04T07:24:07;5.30;99.90
25914;DHT22;13718;50.922;5.346;2023-12-04T07:26:33;5.50;99.90
25914;DHT22;13718;50.922;5.346;2023-12-04T07:28:58;5.70;99.90
25914;DHT22;13718;50.922;5.346;2023-12-04T07:31:24;5.60;99.90
25914;DHT22;13718;50.922;5.346;2023-12-04T07:33:51;5.60;99.90
25914;DHT22;13718;50.922;5.346;2023-12-04T07:36:17;5.60;99.90
25914;DHT22;13718;50.922;5.346;2023-12-04T07:38:42;5.60;99.90
25914;DHT22;13718;50.922;5.346;2023-12-04T07:41:08;5.50;99.90
25914;DHT22;13718;50.922;5.346;2023-12-04T07:43:33;5.60;99.90
25914;DHT22;13718;50.922;5.346;2023-12-04T07:45:59;5.50;99.90
25914;DHT22;13718;50.922;5.346;2023-12-04T07:48:24;5.60;99.90
25914;DHT22;13718;50.922;5.346;2023-12-04T07:50:50;5.60;99.90
25914;DHT22;13718;50.922;5.346;2023-12-04T07:53:15;5.60;99.90
25914;DHT22;13718;50.922;5.346;2023-12-04T07:55:41;5.70;99.90
25914;DHT22;13718;50.922;5.346;2023-12-04T07:58:06;5.70;99.90
25914;DHT22;13718;50.922;5.346;2023-12-04T08:00:32;5.70;99.90
25914;DHT22;13718;50.922;5.346;2023-12-04T08:02:58;5.80;99.90
25914;DHT22;13718;50.922;5.346;2023-12-04T08:05:23;5.80;99.90
25914;DHT22;13718;50.922;5.346;2023-12-04T08:07:49;5.90;99.90
25914;DHT22;13718;50.922;5.346;2023-12-04T08:10:14;5.80;99.90
25914;DHT22;13718;50.922;5.346;2023-12-04T08:12:40;5.80;99.90
25914;DHT22;13718;50.922;5.346;2023-12-04T08:15:05;5.80;99.90
25914;DHT22;13718;50.922;5.346;2023-12-04T08:17:31;5.80;99.90
25914;DHT22;13718;50.922;5.346;2023-12-04T08:19:56;5.80;99.90
25914;DHT22;13718;50.922;5.346;2023-12-04T08:22:22;5.80;99.90
25914;DHT22;13718;50.922;5.346;2023-12-04T08:24:47;5.70;99.90
25914;DHT22;13718;50.922;5.346;2023-12-04T08:27:13;5.80;99.90
25914;DHT22;13718;50.922;5.346;2023-12-04T08:29:41;5.80;99.90
25914;DHT22;13718;50.922;5.346;2023-12-04T08:32:07;5.80;99.90
25914;DHT22;13718;50.922;5.346;2023-12-04T08:34:32;5.80;99.90
25914;DHT22;13718;50.922;5.346;2023-12-04T08:36:58;5.70;99.90
25914;DHT22;13718;50.922;5.346;2023-12-04T08:39:23;5.80;99.90
25914;DHT22;13718;50.922;5.346;2023-12-04T08:41:49;5.90;99.90
25914;DHT22;13718;50.922;5.346;2023-12-04T08:44:14;5.70;99.90
25914;DHT22;13718;50.922;5.346;2023-12-04T08:46:41;5.80;99.90
25914;DHT22;13718;50.922;5.346;2023-12-04T08:49:07;5.80;99.90
25914;DHT22;13718;50.922;5.346;2023-12-04T08:51:32;5.70;99.90
25914;DHT22;13718;50.922;5.346;2023-12-04T08:53:58;5.70;99.90
25914;DHT22;13718;50.922;5.346;2023-12-04T08:56:23;5.90;99.90
25914;DHT22;13718;50.922;5.346;2023-12-04T08:58:48;6.00;99.90
25914;DHT22;13718;50.922;5.346;2023-12-04T09:01:15;5.90;99.90
25914;DHT22;13718;50.922;5.346;2023-12-04T09:03:41;6.00;99.90
25914;DHT22;13718;50.922;5.346;2023-12-04T09:06:06;6.00;99.90
25914;DHT22;13718;50.922;5.346;2023-12-04T09:08:32;6.00;99.90
25914;DHT22;13718;50.922;5.346;2023-12-04T09:10:58;6.10;99.90
25914;DHT22;13718;50.922;5.346;2023-12-04T09:13:23;6.20;99.90
25914;DHT22;13718;50.922;5.346;2023-12-04T09:15:49;6.10;99.90
25914;DHT22;13718;50.922;5.346;2023-12-04T09:18:14;6.20;99.90
25914;DHT22;13718;50.922;5.346;2023-12-04T09:20:41;6.10;99.90
25914;DHT22;13718;50.922;5.346;2023-12-04T09:23:06;6.10;99.90
25914;DHT22;13718;50.922;5.346;2023-12-04T09:25:32;6.20;99.90
25914;DHT22;13718;50.922;5.346;2023-12-04T09:27:57;6.20;99.90
25914;DHT22;13718;50.922;5.346;2023-12-04T09:30:23;6.30;99.90
25914;DHT22;13718;50.922;5.346;2023-12-04T09:32:48;6.20;99.90
25914;DHT22;13718;50.922;5.346;2023-12-04T09:35:14;6.20;99.90
25914;DHT22;13718;50.922;5.346;2023-12-04T09:37:40;6.10;99.90
25914;DHT22;13718;50.922;5.346;2023-12-04T09:40:06;6.10;99.90
25914;DHT22;13718;50.922;5.346;2023-12-04T09:42:33;6.20;99.90
25914;DHT22;13718;50.922;5.346;2023-12-04T09:44:59;6.10;99.90
25914;DHT22;13718;50.922;5.346;2023-12-04T09:47:25;5.90;99.90
25914;DHT22;13718;50.922;5.346;2023-12-04T09:49:51;5.80;99.90
25914;DHT22;13718;50.922;5.346;2023-12-04T09:52:17;5.70;99.90
25914;DHT22;13718;50.922;5.346;2023-12-04T09:54:44;5.60;99.90
25914;DHT22;13718;50.922;5.346;2023-12-04T09:57:09;5.60;99.90
25914;DHT22;13718;50.922;5.346;2023-12-04T09:59:35;5.60;99.90
25914;DHT22;13718;50.922;5.346;2023-12-04T10:02:01;5.60;99.90
25914;DHT22;13718;50.922;5.346;2023-12-04T10:04:26;5.60;99.90
25914;DHT22;13718;50.922;5.346;2023-12-04T10:06:52;5.50;99.90
25914;DHT22;13718;50.922;5.346;2023-12-04T10:09:18;5.50;99.90
25914;DHT22;13718;50.922;5.346;2023-12-04T10:11:46;5.50;99.90
25914;DHT22;13718;50.922;5.346;2023-12-04T10:14:15;5.50;99.90
25914;DHT22;13718;50.922;5.346;2023-12-04T10:16:42;5.40;99.90
25914;DHT22;13718;50.922;5.346;2023-12-04T10:19:21;5.40;99.90
25914;DHT22;13718;50.922;5.346;2023-12-04T10:21:49;5.30;99.90
25914;DHT22;13718;50.922;5.346;2023-12-04T10:24:34;5.30;99.90
25914;DHT22;13718;50.922;5.346;2023-12-04T10:27:04;5.20;99.90
25914;DHT22;13718;50.922;5.346;2023-12-04T10:29:39;5.20;99.90
25914;DHT22;13718;50.922;5.346;2023-12-04T10:32:07;5.20;99.90
25914;DHT22;13718;50.922;5.346;2023-12-04T10:34:32;5.10;99.90
25914;DHT22;13718;50.922;5.346;2023-12-04T10:36:59;5.10;99.90
25914;DHT22;13718;50.922;5.346;2023-12-04T10:39:25;5.00;99.90
25914;DHT22;13718;50.922;5.346;2023-12-04T10:42:03;4.90;99.90
25914;DHT22;13718;50.922;5.346;2023-12-04T10:44:32;4.90;99.90
25914;DHT22;13718;50.922;5.346;2023-12-04T10:46:57;4.90;99.90
25914;DHT22;13718;50.922;5.346;2023-12-04T10:49:25;4.90;99.90
25914;DHT22;13718;50.922;5.346;2023-12-04T10:51:51;4.80;99.90
25914;DHT22;13718;50.922;5.346;2023-12-04T10:54:17;4.80;99.90
25914;DHT22;13718;50.922;5.346;2023-12-04T10:56:42;4.70;99.90
25914;DHT22;13718;50.922;5.346;2023-12-04T10:59:11;4.70;99.90
25914;DHT22;13718;50.922;5.346;2023-12-04T11:01:37;4.80;99.90
25914;DHT22;13718;50.922;5.346;2023-12-04T11:04:03;4.80;99.90
25914;DHT22;13718;50.922;5.346;2023-12-04T11:06:33;4.80;99.90
25914;DHT22;13718;50.922;5.346;2023-12-04T11:09:00;4.70;99.90
25914;DHT22;13718;50.922;5.346;2023-12-04T11:11:27;4.60;99.90
25914;DHT22;13718;50.922;5.346;2023-12-04T11:13:56;4.70;99.90
25914;DHT22;13718;50.922;5.346;2023-12-04T11:16:41;4.90;99.90
25914;DHT22;13718;50.922;5.346;2023-12-04T11:21:37;5.00;99.90
25914;DHT22;13718;50.922;5.346;2023-12-04T11:24:04;5.00;99.90
25914;DHT22;13718;50.922;5.346;2023-12-04T11:26:31;5.00;99.90
25914;DHT22;13718;50.922;5.346;2023-12-04T11:28:57;5.10;99.90
25914;DHT22;13718;50.922;5.346;2023-12-04T11:31:22;5.20;99.90
25914;DHT22;13718;50.922;5.346;2023-12-04T11:33:48;5.40;99.90
25914;DHT22;13718;50.922;5.346;2023-12-04T11:36:14;5.50;99.90
25914;DHT22;13718;50.922;5.346;2023-12-04T11:38:48;5.50;99.90
25914;DHT22;13718;50.922;5.346;2023-12-04T11:41:14;5.50;99.90
25914;DHT22;13718;50.922;5.346;2023-12-04T11:43:40;5.60;99.90
25914;DHT22;13718;50.922;5.346;2023-12-04T11:46:08;5.60;99.90
25914;DHT22;13718;50.922;5.346;2023-12-04T11:48:34;5.70;99.90
25914;DHT22;13718;50.922;5.346;2023-12-04T11:50:59;5.70;99.90
25914;DHT22;13718;50.922;5.346;2023-12-04T11:53:25;5.80;99.90
25914;DHT22;13718;50.922;5.346;2023-12-04T11:55:51;5.90;99.90
25914;DHT22;13718;50.922;5.346;2023-12-04T11:58:20;5.90;99.90
25914;DHT22;13718;50.922;5.346;2023-12-04T12:00:46;5.90;99.90
25914;DHT22;13718;50.922;5.346;2023-12-04T12:03:13;6.00;99.90
25914;DHT22;13718;50.922;5.346;2023-12-04T12:05:39;6.00;99.90
25914;DHT22;13718;50.922;5.346;2023-12-04T12:08:06;6.00;99.90
25914;DHT22;13718;50.922;5.346;2023-12-04T12:10:32;6.10;99.90
25914;DHT22;13718;50.922;5.346;2023-12-04T12:12:58;6.20;99.90
25914;DHT22;13718;50.922;5.346;2023-12-04T12:15:23;6.30;99.90
25914;DHT22;13718;50.922;5.346;2023-12-04T12:17:49;6.20;99.90
25914;DHT22;13718;50.922;5.346;2023-12-04T12:20:16;6.20;99.90
25914;DHT22;13718;50.922;5.346;2023-12-04T12:22:41;6.10;99.90
25914;DHT22;13718;50.922;5.346;2023-12-04T12:25:12;6.00;99.90
25914;DHT22;13718;50.922;5.346;2023-12-04T12:27:38;6.10;99.90
25914;DHT22;13718;50.922;5.346;2023-12-04T12:30:04;6.20;99.90
25914;DHT22;13718;50.922;5.346;2023-12-04T12:32:35;6.10;99.90
25914;DHT22;13718;50.922;5.346;2023-12-04T12:35:01;6.10;99.90
25914;DHT22;13718;50.922;5.346;2023-12-04T12:37:28;6.20;99.90
25914;DHT22;13718;50.922;5.346;2023-12-04T12:39:53;6.10;99.90
25914;DHT22;13718;50.922;5.346;2023-12-04T12:42:23;6.10;99.90
25914;DHT22;13718;50.922;5.346;2023-12-04T12:44:48;6.20;99.90
25914;DHT22;13718;50.922;5.346;2023-12-04T12:47:14;6.30;99.90
25914;DHT22;13718;50.922;5.346;2023-12-04T12:49:40;6.30;99.90
25914;DHT22;13718;50.922;5.346;2023-12-04T12:52:05;6.30;99.90
25914;DHT22;13718;50.922;5.346;2023-12-04T12:54:33;6.30;99.90
25914;DHT22;13718;50.922;5.346;2023-12-04T12:57:01;6.30;99.90
25914;DHT22;13718;50.922;5.346;2023-12-04T12:59:27;6.30;99.90
25914;DHT22;13718;50.922;5.346;2023-12-04T13:01:52;6.30;99.90
25914;DHT22;13718;50.922;5.346;2023-12-04T13:04:18;6.30;99.90
25914;DHT22;13718;50.922;5.346;2023-12-04T13:06:44;6.20;99.90
25914;DHT22;13718;50.922;5.346;2023-12-04T13:09:10;6.20;99.90
25914;DHT22;13718;50.922;5.346;2023-12-04T13:11:45;6.10;99.90
25914;DHT22;13718;50.922;5.346;2023-12-04T13:14:11;6.10;99.90
25914;DHT22;13718;50.922;5.346;2023-12-04T13:16:36;6.00;99.90
25914;DHT22;13718;50.922;5.346;2023-12-04T13:19:02;5.90;99.90
25914;DHT22;13718;50.922;5.346;2023-12-04T13:21:27;5.90;99.90
25914;DHT22;13718;50.922;5.346;2023-12-04T13:23:54;6.00;99.90
25914;DHT22;13718;50.922;5.346;2023-12-04T13:26:20;6.00;99.90
25914;DHT22;13718;50.922;5.346;2023-12-04T13:28:46;5.80;99.90
25914;DHT22;13718;50.922;5.346;2023-12-04T13:31:12;6.00;99.90
25914;DHT22;13718;50.922;5.346;2023-12-04T13:33:38;6.00;99.90
25914;DHT22;13718;50.922;5.346;2023-12-04T13:36:03;5.90;99.90
25914;DHT22;13718;50.922;5.346;2023-12-04T13:38:29;6.00;99.90
25914;DHT22;13718;50.922;5.346;2023-12-04T13:40:55;5.80;99.90
25914;DHT22;13718;50.922;5.346;2023-12-04T13:43:44;5.80;99.90
25914;DHT22;13718;50.922;5.346;2023-12-04T13:46:15;5.90;99.90
25914;DHT22;13718;50.922;5.346;2023-12-04T13:48:40;5.90;99.90
25914;DHT22;13718;50.922;5.346;2023-12-04T13:51:10;5.90;99.90
25914;DHT22;13718;50.922;5.346;2023-12-04T13:53:35;5.90;99.90
25914;DHT22;13718;50.922;5.346;2023-12-04T13:56:07;5.90;99.90
25914;DHT22;13718;50.922;5.346;2023-12-04T13:58:56;5.80;99.90
25914;DHT22;13718;50.922;5.346;2023-12-04T14:01:25;5.70;99.90
25914;DHT22;13718;50.922;5.346;2023-12-04T14:03:54;5.80;99.90
25914;DHT22;13718;50.922;5.346;2023-12-04T14:06:20;5.70;99.90
25914;DHT22;13718;50.922;5.346;2023-12-04T14:08:45;5.70;99.90
25914;DHT22;13718;50.922;5.346;2023-12-04T14:11:11;5.50;99.90
25914;DHT22;13718;50.922;5.346;2023-12-04T14:13:37;5.40;99.90
25914;DHT22;13718;50.922;5.346;2023-12-04T14:16:04;5.30;99.90
25914;DHT22;13718;50.922;5.346;2023-12-04T14:18:30;5.30;99.90
25914;DHT22;13718;50.922;5.346;2023-12-04T14:20:56;5.20;99.90
25914;DHT22;13718;50.922;5.346;2023-12-04T14:23:21;5.40;99.90
25914;DHT22;13718;50.922;5.346;2023-12-04T14:25:47;5.40;99.90
25914;DHT22;13718;50.922;5.346;2023-12-04T14:28:12;5.50;99.90
25914;DHT22;13718;50.922;5.346;2023-12-04T14:30:38;5.50;99.90
25914;DHT22;13718;50.922;5.346;2023-12-04T14:33:03;5.50;99.90
25914;DHT22;13718;50.922;5.346;2023-12-04T14:35:28;5.50;99.90
25914;DHT22;13718;50.922;5.346;2023-12-04T14:37:54;5.30;99.90
25914;DHT22;13718;50.922;5.346;2023-12-04T14:40:20;5.20;99.90
25914;DHT22;13718;50.922;5.346;2023-12-04T14:42:45;5.30;99.90
25914;DHT22;13718;50.922;5.346;2023-12-04T14:45:11;5.40;99.90
25914;DHT22;13718;50.922;5.346;2023-12-04T14:47:37;5.60;99.90
25914;DHT22;13718;50.922;5.346;2023-12-04T14:50:03;5.50;99.90
25914;DHT22;13718;50.922;5.346;2023-12-04T14:52:29;5.50;99.90
25914;DHT22;13718;50.922;5.346;2023-12-04T14:54:57;5.50;99.90
25914;DHT22;13718;50.922;5.346;2023-12-04T14:57:43;5.50;99.90
25914;DHT22;13718;50.922;5.346;2023-12-04T15:00:28;5.30;99.90
25914;DHT22;13718;50.922;5.346;2023-12-04T15:03:20;5.30;99.90
25914;DHT22;13718;50.922;5.346;2023-12-04T15:06:04;5.20;99.90
25914;DHT22;13718;50.922;5.346;2023-12-04T15:08:29;5.30;99.90
25914;DHT22;13718;50.922;5.346;2023-12-04T15:11:13;5.40;99.90
25914;DHT22;13718;50.922;5.346;2023-12-04T15:14:07;5.50;99.90
25914;DHT22;13718;50.922;5.346;2023-12-04T15:16:51;5.40;99.90
25914;DHT22;13718;50.922;5.346;2023-12-04T15:19:22;5.40;99.90
25914;DHT22;13718;50.922;5.346;2023-12-04T15:22:01;5.40;99.90
25914;DHT22;13718;50.922;5.346;2023-12-04T15:24:27;5.40;99.90
25914;DHT22;13718;50.922;5.346;2023-12-04T15:26:52;5.60;99.90
25914;DHT22;13718;50.922;5.346;2023-12-04T15:29:18;5.40;99.90
25914;DHT22;13718;50.922;5.346;2023-12-04T15:31:48;5.30;99.90
25914;DHT22;13718;50.922;5.346;2023-12-04T15:34:13;5.30;99.90
25914;DHT22;13718;50.922;5.346;2023-12-04T15:36:39;5.40;99.90
25914;DHT22;13718;50.922;5.346;2023-12-04T15:39:04;5.20;99.90
25914;DHT22;13718;50.922;5.346;2023-12-04T15:41:30;5.10;99.90
25914;DHT22;13718;50.922;5.346;2023-12-04T15:43:56;5.30;99.90